NKS397 KATL-KORD
Flight info
| Callsign | NKS397 |
|---|---|
| Flight time | N/A |
| Altitude | 31000 |
| Route | VARNM2 GLAZR Q118 HEVAN DCT BONNT VEECK5 |
| Aircraft | A320/M-SDE3FGHIRWY/LB1 |
Departure
| Time | 2026-05-07 00:24 |
|---|---|
| Airport | Hartsfield Jackson Atlanta International Airport (KATL) |
Arrival
| Time | N/A |
|---|---|
| Airport | Chicago O'Hare International Airport (KORD) |
| Time | Latitude | Longitude | Altitude | Speed | Heading |
|---|---|---|---|---|---|
| 2026-05-07 00:03 | 33.64228 | -84.43316 | 1007 ft | 0 kts | 90° |
| 2026-05-07 00:14 | 33.64228 | -84.43331 | 1006 ft | 2 kts | 92° |
| 2026-05-07 00:14 | 33.64229 | -84.43351 | 1006 ft | 2 kts | 93° |
| 2026-05-07 00:14 | 33.64230 | -84.43371 | 1006 ft | 2 kts | 88° |
| 2026-05-07 00:15 | 33.64226 | -84.43389 | 1006 ft | 2 kts | 65° |
| 2026-05-07 00:15 | 33.64224 | -84.43394 | 1006 ft | 0 kts | 68° |
| 2026-05-07 00:17 | 33.64257 | -84.43385 | 1006 ft | 12 kts | 359° |
| 2026-05-07 00:17 | 33.64287 | -84.43387 | 1007 ft | 1 kts | 358° |
| 2026-05-07 00:17 | 33.64308 | -84.43388 | 1007 ft | 4 kts | 356° |
| 2026-05-07 00:17 | 33.64347 | -84.43390 | 1007 ft | 9 kts | 0° |
| 2026-05-07 00:18 | 33.64413 | -84.43386 | 1007 ft | 10 kts | 14° |
| 2026-05-07 00:18 | 33.64455 | -84.43308 | 1007 ft | 15 kts | 82° |
| 2026-05-07 00:18 | 33.64460 | -84.43150 | 1008 ft | 22 kts | 88° |
| 2026-05-07 00:18 | 33.64461 | -84.42961 | 1007 ft | 24 kts | 91° |
| 2026-05-07 00:19 | 33.64459 | -84.42809 | 1007 ft | 15 kts | 90° |
| 2026-05-07 00:19 | 33.64465 | -84.42691 | 1007 ft | 13 kts | 84° |
| 2026-05-07 00:19 | 33.64468 | -84.42584 | 1007 ft | 15 kts | 91° |
| 2026-05-07 00:19 | 33.64469 | -84.42435 | 1007 ft | 18 kts | 90° |
| 2026-05-07 00:20 | 33.64470 | -84.42291 | 1007 ft | 17 kts | 86° |
| 2026-05-07 00:20 | 33.64512 | -84.42171 | 1007 ft | 15 kts | 59° |
| 2026-05-07 00:20 | 33.64542 | -84.42064 | 1007 ft | 13 kts | 86° |
| 2026-05-07 00:20 | 33.64544 | -84.41903 | 1007 ft | 27 kts | 88° |
| 2026-05-07 00:21 | 33.64541 | -84.41679 | 1007 ft | 26 kts | 88° |
| 2026-05-07 00:21 | 33.64547 | -84.41470 | 1007 ft | 24 kts | 93° |
| 2026-05-07 00:21 | 33.64544 | -84.41274 | 1007 ft | 23 kts | 89° |
| 2026-05-07 00:21 | 33.64543 | -84.41086 | 1007 ft | 22 kts | 90° |
| 2026-05-07 00:22 | 33.64544 | -84.40908 | 1006 ft | 21 kts | 89° |
| 2026-05-07 00:22 | 33.64564 | -84.40757 | 1006 ft | 19 kts | 78° |
| 2026-05-07 00:22 | 33.64574 | -84.40612 | 1005 ft | 15 kts | 87° |
| 2026-05-07 00:22 | 33.64642 | -84.40559 | 1003 ft | 14 kts | 342° |
| 2026-05-07 00:23 | 33.64683 | -84.40660 | 1003 ft | 19 kts | 271° |
| 2026-05-07 00:23 | 33.64680 | -84.41112 | 1008 ft | 88 kts | 270° |
| 2026-05-07 00:23 | 33.64679 | -84.42066 | 1011 ft | 138 kts | 269° |
| 2026-05-07 00:23 | 33.64669 | -84.43379 | 1162 ft | 168 kts | 269° |
| 2026-05-07 00:24 | 33.64681 | -84.44756 | 1902 ft | 162 kts | 267° |
| 2026-05-07 00:24 | 33.64777 | -84.46101 | 2618 ft | 165 kts | 282° |
| 2026-05-07 00:24 | 33.65218 | -84.47377 | 3298 ft | 165 kts | 287° |
| 2026-05-07 00:24 | 33.65686 | -84.48629 | 3912 ft | 164 kts | 287° |
| 2026-05-07 00:25 | 33.66158 | -84.49885 | 4428 ft | 173 kts | 287° |
| 2026-05-07 00:25 | 33.66677 | -84.51283 | 4701 ft | 195 kts | 288° |
| 2026-05-07 00:25 | 33.67246 | -84.52812 | 4951 ft | 219 kts | 289° |
| 2026-05-07 00:25 | 33.67905 | -84.54576 | 5287 ft | 244 kts | 290° |
| 2026-05-07 00:26 | 33.68913 | -84.56333 | 5930 ft | 268 kts | 310° |
| 2026-05-07 00:26 | 33.70482 | -84.57618 | 6812 ft | 282 kts | 331° |
| 2026-05-07 00:26 | 33.72429 | -84.58165 | 7690 ft | 295 kts | 352° |
| 2026-05-07 00:26 | 33.74501 | -84.58172 | 8595 ft | 299 kts | 354° |
| 2026-05-07 00:27 | 33.76589 | -84.58149 | 9465 ft | 301 kts | 354° |
| 2026-05-07 00:27 | 33.78703 | -84.58119 | 10233 ft | 305 kts | 354° |
| 2026-05-07 00:27 | 33.80837 | -84.58089 | 10987 ft | 309 kts | 354° |
| 2026-05-07 00:27 | 33.83026 | -84.58076 | 11452 ft | 325 kts | 353° |
| 2026-05-07 00:28 | 33.85372 | -84.58103 | 11633 ft | 348 kts | 353° |
| 2026-05-07 00:28 | 33.87869 | -84.58182 | 11767 ft | 371 kts | 352° |
| 2026-05-07 00:28 | 33.90505 | -84.58283 | 12116 ft | 385 kts | 352° |
| 2026-05-07 00:28 | 33.93170 | -84.58379 | 12707 ft | 390 kts | 352° |
| 2026-05-07 00:29 | 33.95935 | -84.58471 | 13421 ft | 394 kts | 352° |
| 2026-05-07 00:29 | 33.98655 | -84.58551 | 14003 ft | 398 kts | 352° |
| 2026-05-07 00:30 | 34.07023 | -84.58793 | 15810 ft | 404 kts | 351° |
| 2026-05-07 00:30 | 34.09845 | -84.58877 | 16384 ft | 406 kts | 351° |
| 2026-05-07 00:30 | 34.12677 | -84.58959 | 17000 ft | 408 kts | 351° |
| 2026-05-07 00:30 | 34.15531 | -84.59040 | 17589 ft | 410 kts | 351° |
| 2026-05-07 00:31 | 34.18402 | -84.59125 | 18191 ft | 413 kts | 350° |
| 2026-05-07 00:31 | 34.21272 | -84.59213 | 18724 ft | 415 kts | 350° |
| 2026-05-07 00:31 | 34.24188 | -84.59300 | 19234 ft | 418 kts | 350° |
| 2026-05-07 00:31 | 34.27118 | -84.59388 | 19743 ft | 421 kts | 350° |
| 2026-05-07 00:32 | 34.29988 | -84.59502 | 20206 ft | 423 kts | 349° |
| 2026-05-07 00:32 | 34.32950 | -84.59708 | 20694 ft | 425 kts | 348° |
| 2026-05-07 00:32 | 34.35892 | -84.59967 | 21163 ft | 427 kts | 347° |
| 2026-05-07 00:32 | 34.38844 | -84.60251 | 21624 ft | 430 kts | 347° |
| 2026-05-07 00:33 | 34.41860 | -84.60543 | 22076 ft | 432 kts | 347° |
| 2026-05-07 00:33 | 34.44858 | -84.60826 | 22496 ft | 436 kts | 347° |
| 2026-05-07 00:33 | 34.47889 | -84.61097 | 22920 ft | 439 kts | 347° |
| 2026-05-07 00:33 | 34.50959 | -84.61362 | 23330 ft | 442 kts | 347° |
| 2026-05-07 00:34 | 34.54017 | -84.61620 | 23700 ft | 445 kts | 347° |
| 2026-05-07 00:34 | 34.57107 | -84.61878 | 24050 ft | 448 kts | 347° |
| 2026-05-07 00:34 | 34.60260 | -84.62140 | 24390 ft | 451 kts | 347° |
| 2026-05-07 00:34 | 34.63388 | -84.62402 | 24717 ft | 454 kts | 347° |
| 2026-05-07 00:35 | 34.66564 | -84.62671 | 25068 ft | 457 kts | 347° |
| 2026-05-07 00:35 | 34.69705 | -84.62942 | 25409 ft | 460 kts | 347° |
| 2026-05-07 00:35 | 34.72906 | -84.63223 | 25757 ft | 462 kts | 346° |
| 2026-05-07 00:35 | 34.76131 | -84.63508 | 26111 ft | 465 kts | 346° |
| 2026-05-07 00:36 | 34.79359 | -84.63789 | 26445 ft | 467 kts | 347° |
| 2026-05-07 00:36 | 34.82634 | -84.64071 | 26775 ft | 470 kts | 347° |
| 2026-05-07 00:36 | 34.85887 | -84.64352 | 27122 ft | 473 kts | 346° |
| 2026-05-07 00:36 | 34.89183 | -84.64639 | 27475 ft | 475 kts | 346° |
| 2026-05-07 00:37 | 34.92473 | -84.64923 | 27960 ft | 474 kts | 346° |
| 2026-05-07 00:37 | 34.95763 | -84.65203 | 28432 ft | 473 kts | 346° |
| 2026-05-07 00:37 | 34.99042 | -84.65480 | 28931 ft | 473 kts | 346° |
| 2026-05-07 00:37 | 35.02333 | -84.65760 | 29439 ft | 472 kts | 346° |
| 2026-05-07 00:38 | 35.05596 | -84.66038 | 29875 ft | 473 kts | 346° |
| 2026-05-07 00:38 | 35.08892 | -84.66318 | 29992 ft | 476 kts | 346° |
| 2026-05-07 00:38 | 35.13308 | -84.66695 | 30010 ft | 478 kts | 346° |